Time;durP1;ratioP1;P1;durP2;ratioP2;P2;SDS_P1;SDS_P2;PMS_P1;PMS_P2;Temp;Humidity;BMP_temperature;BMP_pressure;BME280_temperature;BME280_humidity;BME280_pressure;Samples;Min_cycle;Max_cycle;Signal;HPM_P1;HPM_P2
2022/05/09 00:00:48;;;;;;;9.00;3.85;;;;;;;;;;5048280;28;20057;-65
2022/05/09 00:03:19;;;;;;;6.80;3.13;;;;;;;;;;5048851;28;20501;-65
2022/05/09 00:05:49;;;;;;;5.70;2.35;;;;;;;;;;5053468;28;20399;-65
2022/05/09 00:08:20;;;;;;;8.50;3.38;;;;;;;;;;5038651;28;20052;-65
2022/05/09 00:10:51;;;;;;;8.60;3.70;;;;;;;;;;5055505;28;20049;-64
2022/05/09 00:13:21;;;;;;;7.85;4.03;;;;;;;;;;5006135;28;20088;-65
2022/05/09 00:15:51;;;;;;;7.25;3.75;;;;;;;;;;5038681;28;20060;-64
2022/05/09 00:18:22;;;;;;;12.02;3.88;;;;;;;;;;5006456;28;20045;-64
2022/05/09 00:20:53;;;;;;;6.85;3.45;;;;;;;;;;5055149;28;20048;-65
2022/05/09 00:23:24;;;;;;;10.45;3.83;;;;;;;;;;5055431;28;20049;-64
2022/05/09 00:25:54;;;;;;;6.00;2.65;;;;;;;;;;5054995;28;20400;-64
2022/05/09 00:28:26;;;;;;;7.55;3.85;;;;;;;;;;5037005;28;20056;-64
2022/05/09 00:30:59;;;;;;;5.88;2.42;;;;;;;;;;5038241;28;20404;-64
2022/05/09 00:33:31;;;;;;;7.28;3.90;;;;;;;;;;5055331;28;20053;-64
2022/05/09 00:36:02;;;;;;;7.18;3.58;;;;;;;;;;5054981;28;20048;-64
2022/05/09 00:38:32;;;;;;;8.50;3.92;;;;;;;;;;5022096;28;20059;-64
2022/05/09 00:43:53;;;;;;;9.10;3.00;;;;;;;;;;5015207;28;20060;-64
2022/05/09 00:46:24;;;;;;;7.22;3.30;;;;;;;;;;5015508;28;20054;-65
2022/05/09 00:49:02;;;;;;;6.93;3.40;;;;;;;;;;5015003;28;20058;-65
2022/05/09 00:51:34;;;;;;;7.00;3.35;;;;;;;;;;4982686;28;20053;-64
2022/05/09 00:54:06;;;;;;;6.30;2.72;;;;;;;;;;4999152;28;20411;-64
2022/05/09 00:56:43;;;;;;;7.43;4.22;;;;;;;;;;5015440;28;20056;-65
2022/05/09 00:59:17;;;;;;;8.13;2.75;;;;;;;;;;5029051;28;20464;-64
2022/05/09 01:01:48;;;;;;;8.13;3.65;;;;;;;;;;5018144;28;20136;-64
2022/05/09 01:04:26;;;;;;;6.75;3.60;;;;;;;;;;5034951;28;20057;-65
2022/05/09 01:06:58;;;;;;;7.13;3.03;;;;;;;;;;5034783;28;20053;-64
2022/05/09 01:09:29;;;;;;;9.70;3.85;;;;;;;;;;5018719;28;20049;-64
2022/05/09 01:12:00;;;;;;;7.07;3.30;;;;;;;;;;5035001;28;20061;-64
2022/05/09 01:14:32;;;;;;;6.78;3.42;;;;;;;;;;5014626;28;20046;-64
2022/05/09 01:17:04;;;;;;;11.55;3.40;;;;;;;;;;5012541;28;20053;-65
2022/05/09 01:19:38;;;;;;;9.30;3.40;;;;;;;;;;5016928;28;20049;-65
2022/05/09 01:22:23;;;;;;;7.65;3.25;;;;;;;;;;5035253;28;20053;-64
2022/05/09 01:24:57;;;;;;;9.07;3.33;;;;;;;;;;5051812;28;20064;-64
2022/05/09 01:27:28;;;;;;;8.35;3.03;;;;;;;;;;5031535;28;20076;-65
2022/05/09 01:30:02;;;;;;;5.20;3.08;;;;;;;;;;5014929;28;20061;-65
2022/05/09 01:32:50;;;;;;;9.13;3.30;;;;;;;;;;5031184;28;20060;-65
2022/05/09 01:35:46;;;;;;;9.07;3.30;;;;;;;;;;4972358;28;20055;-64
2022/05/09 01:38:38;;;;;;;5.68;3.47;;;;;;;;;;4972323;28;20062;-64
2022/05/09 01:41:08;;;;;;;6.75;3.40;;;;;;;;;;4972349;28;20073;-64
2022/05/09 01:43:42;;;;;;;9.30;3.95;;;;;;;;;;4972665;28;20523;-64
2022/05/09 01:46:17;;;;;;;8.85;3.85;;;;;;;;;;4957105;28;20086;-64
2022/05/09 01:51:39;;;;;;;10.20;3.72;;;;;;;;;;4977621;28;20055;-64
2022/05/09 01:54:11;;;;;;;8.80;4.32;;;;;;;;;;4991802;28;20065;-64
2022/05/09 01:56:43;;;;;;;9.38;4.30;;;;;;;;;;4991497;28;20113;-64
2022/05/09 01:59:14;;;;;;;8.75;4.10;;;;;;;;;;4991496;28;20059;-64
2022/05/09 02:01:46;;;;;;;11.27;3.47;;;;;;;;;;4991352;28;20406;-64
2022/05/09 02:04:23;;;;;;;8.70;4.40;;;;;;;;;;4994738;28;20050;-64
2022/05/09 02:06:55;;;;;;;8.60;3.42;;;;;;;;;;5010953;28;20058;-64
2022/05/09 02:09:25;;;;;;;8.25;3.72;;;;;;;;;;4962358;28;20053;-64
2022/05/09 02:11:56;;;;;;;11.70;3.63;;;;;;;;;;5015008;28;20058;-64
2022/05/09 02:14:26;;;;;;;7.38;3.38;;;;;;;;;;5020936;28;20044;-64
2022/05/09 02:16:57;;;;;;;7.95;4.07;;;;;;;;;;5070540;28;20057;-64
2022/05/09 02:19:28;;;;;;;6.35;3.42;;;;;;;;;;5020971;28;20048;-64
2022/05/09 02:22:00;;;;;;;7.22;3.47;;;;;;;;;;5070460;28;20049;-64
2022/05/09 02:24:31;;;;;;;7.22;3.60;;;;;;;;;;5070408;28;20053;-64
2022/05/09 02:27:01;;;;;;;9.43;3.65;;;;;;;;;;5070308;28;20052;-64
2022/05/09 02:29:32;;;;;;;8.20;3.70;;;;;;;;;;5069216;28;20060;-64
2022/05/09 02:32:05;;;;;;;7.07;3.30;;;;;;;;;;5054134;28;20040;-64
2022/05/09 02:34:35;;;;;;;;;;;;;;;;;;5022400;28;20500;-65
2022/05/09 02:37:06;;;;;;;4.88;3.00;;;;;;;;;;5053735;28;19921;-64
2022/05/09 02:39:37;;;;;;;7.68;3.10;;;;;;;;;;5021055;28;20060;-64
2022/05/09 02:42:08;;;;;;;6.75;3.30;;;;;;;;;;5036734;28;20056;-64
2022/05/09 02:44:39;;;;;;;6.70;3.70;;;;;;;;;;5053959;28;20055;-64
2022/05/09 02:47:09;;;;;;;8.30;3.38;;;;;;;;;;5070002;28;20056;-64
2022/05/09 02:49:41;;;;;;;7.50;3.88;;;;;;;;;;5070145;28;20071;-64
2022/05/09 02:52:12;;;;;;;8.00;3.70;;;;;;;;;;5049555;28;20489;-64
2022/05/09 02:54:44;;;;;;;8.23;4.63;;;;;;;;;;5029394;28;20067;-64
2022/05/09 02:57:14;;;;;;;8.55;3.85;;;;;;;;;;4993846;28;20049;-64
2022/05/09 02:59:45;;;;;;;9.02;4.03;;;;;;;;;;5009918;28;20057;-64
2022/05/09 03:02:16;;;;;;;7.90;3.53;;;;;;;;;;4954647;28;20061;-64
2022/05/09 03:04:48;;;;;;;9.85;3.63;;;;;;;;;;4970819;28;20219;-64
2022/05/09 03:07:20;;;;;;;7.85;3.50;;;;;;;;;;4954726;28;20210;-64
2022/05/09 03:09:51;;;;;;;9.57;3.35;;;;;;;;;;4938846;28;20058;-64
2022/05/09 03:12:22;;;;;;;7.55;3.50;;;;;;;;;;4912587;28;20586;-64
2022/05/09 03:14:52;;;;;;;8.05;3.78;;;;;;;;;;4904093;29;20124;-64
2022/05/09 03:17:23;;;;;;;8.70;3.95;;;;;;;;;;4951651;28;20500;-64
2022/05/09 03:19:53;;;;;;;9.10;3.63;;;;;;;;;;4913052;29;20063;-64
2022/05/09 03:22:28;;;;;;;7.53;4.07;;;;;;;;;;4912772;29;20103;-64
2022/05/09 03:24:59;;;;;;;8.98;4.25;;;;;;;;;;4913507;29;20056;-64
2022/05/09 03:27:29;;;;;;;10.27;4.15;;;;;;;;;;4913171;29;20519;-64
2022/05/09 03:30:00;;;;;;;11.88;5.13;;;;;;;;;;4934727;29;20059;-64
2022/05/09 03:32:32;;;;;;;9.40;4.18;;;;;;;;;;4940947;28;20055;-64
2022/05/09 03:35:03;;;;;;;10.68;4.63;;;;;;;;;;4931971;29;20058;-64
2022/05/09 03:37:35;;;;;;;9.40;4.10;;;;;;;;;;4931857;29;20670;-64
2022/05/09 03:40:06;;;;;;;8.90;3.30;;;;;;;;;;4953800;28;20439;-64
2022/05/09 03:42:39;;;;;;;10.07;3.85;;;;;;;;;;4970420;28;20054;-64
2022/05/09 03:45:10;;;;;;;6.95;3.78;;;;;;;;;;4970657;28;20073;-64
2022/05/09 03:47:40;;;;;;;11.23;4.18;;;;;;;;;;4922275;28;20058;-64
2022/05/09 03:50:14;;;;;;;8.68;4.32;;;;;;;;;;4970288;28;20059;-64
2022/05/09 03:52:48;;;;;;;8.35;4.15;;;;;;;;;;4970164;28;20160;-64
2022/05/09 03:55:19;;;;;;;10.18;3.47;;;;;;;;;;4922882;28;20438;-64
2022/05/09 03:57:52;;;;;;;9.80;3.78;;;;;;;;;;4930452;28;20426;-64
2022/05/09 04:00:26;;;;;;;12.23;4.20;;;;;;;;;;4993690;28;20449;-64
2022/05/09 04:02:58;;;;;;;8.75;4.05;;;;;;;;;;5009069;28;20064;-64
2022/05/09 04:05:35;;;;;;;7.32;3.58;;;;;;;;;;4969958;28;20054;-64
2022/05/09 04:08:16;;;;;;;9.23;3.35;;;;;;;;;;4970329;28;20426;-64
2022/05/09 04:10:47;;;;;;;8.52;3.40;;;;;;;;;;4970333;28;20063;-64
2022/05/09 04:13:18;;;;;;;11.13;3.63;;;;;;;;;;4995917;28;20054;-64
2022/05/09 04:18:43;;;;;;;7.65;3.20;;;;;;;;;;4950953;29;20055;-64
2022/05/09 04:21:14;;;;;;;8.75;4.20;;;;;;;;;;4950627;29;20063;-64
2022/05/09 04:23:45;;;;;;;8.77;4.30;;;;;;;;;;4950713;29;20051;-64
2022/05/09 04:26:16;;;;;;;9.25;3.47;;;;;;;;;;4966284;28;20861;-64
2022/05/09 04:28:47;;;;;;;7.95;3.45;;;;;;;;;;4966608;28;20542;-64
2022/05/09 04:31:19;;;;;;;7.40;3.85;;;;;;;;;;4950549;29;20051;-64
2022/05/09 04:33:52;;;;;;;6.72;3.80;;;;;;;;;;4966685;28;20058;-64
2022/05/09 04:36:23;;;;;;;7.43;4.03;;;;;;;;;;4984813;28;20051;-64
2022/05/09 04:38:54;;;;;;;6.22;3.40;;;;;;;;;;4989027;28;20057;-64
2022/05/09 04:41:25;;;;;;;10.02;4.38;;;;;;;;;;4989205;28;20090;-64
2022/05/09 04:43:56;;;;;;;8.55;3.88;;;;;;;;;;5008329;28;20498;-64
2022/05/09 04:46:27;;;;;;;7.47;3.95;;;;;;;;;;4976048;28;20045;-64
2022/05/09 04:48:57;;;;;;;7.60;3.35;;;;;;;;;;4992735;28;20054;-64
2022/05/09 04:51:28;;;;;;;5.97;2.92;;;;;;;;;;5022921;28;20057;-64
2022/05/09 04:53:58;;;;;;;7.35;2.60;;;;;;;;;;5013367;28;20476;-64
2022/05/09 04:56:29;;;;;;;9.95;3.35;;;;;;;;;;5051818;28;20064;-64
2022/05/09 04:59:00;;;;;;;10.20;3.47;;;;;;;;;;5052548;28;20460;-64
2022/05/09 05:01:30;;;;;;;7.47;4.30;;;;;;;;;;5051743;28;20116;-64
2022/05/09 05:04:04;;;;;;;8.45;5.47;;;;;;;;;;5052082;28;20089;-64
2022/05/09 05:06:35;;;;;;;8.05;3.83;;;;;;;;;;5051736;28;20049;-64
2022/05/09 05:09:05;;;;;;;8.07;3.55;;;;;;;;;;5051617;28;20562;-64
2022/05/09 05:11:37;;;;;;;7.53;3.58;;;;;;;;;;5051840;28;20053;-64
2022/05/09 05:14:07;;;;;;;5.75;3.13;;;;;;;;;;5011950;28;20053;-64
2022/05/09 05:19:28;;;;;;;7.13;2.92;;;;;;;;;;4953344;29;20056;-64
2022/05/09 05:22:01;;;;;;;8.45;3.30;;;;;;;;;;4963349;28;20498;-64
2022/05/09 05:24:36;;;;;;;5.95;2.80;;;;;;;;;;4972527;28;20046;-64
2022/05/09 05:27:06;;;;;;;6.13;3.08;;;;;;;;;;4973091;28;20055;-64
2022/05/09 05:29:37;;;;;;;6.15;3.08;;;;;;;;;;4972840;28;20058;-64
2022/05/09 05:32:19;;;;;;;6.07;3.15;;;;;;;;;;4953191;29;20047;-64
2022/05/09 05:34:51;;;;;;;8.60;3.20;;;;;;;;;;4921665;29;20080;-63
2022/05/09 05:37:21;;;;;;;11.45;3.45;;;;;;;;;;4953084;29;20151;-64
2022/05/09 05:39:52;;;;;;;7.80;2.92;;;;;;;;;;4953266;29;20051;-63
2022/05/09 05:42:22;;;;;;;7.20;3.22;;;;;;;;;;4953167;29;20541;-64
2022/05/09 05:44:53;;;;;;;7.15;3.00;;;;;;;;;;4952966;29;20444;-64
2022/05/09 05:47:24;;;;;;;7.13;3.83;;;;;;;;;;4938106;29;20050;-63
2022/05/09 05:49:57;;;;;;;7.18;3.67;;;;;;;;;;4952989;29;20060;-64
2022/05/09 05:52:32;;;;;;;6.50;3.58;;;;;;;;;;4968776;28;20059;-63
2022/05/09 05:55:04;;;;;;;7.28;3.72;;;;;;;;;;4972385;28;20051;-63
2022/05/09 05:57:39;;;;;;;9.93;4.00;;;;;;;;;;4966653;28;20054;-65
2022/05/09 06:00:12;;;;;;;5.65;3.17;;;;;;;;;;4994556;28;20105;-63
2022/05/09 06:02:46;;;;;;;7.13;3.85;;;;;;;;;;5011538;28;20062;-63
2022/05/09 06:05:18;;;;;;;6.78;3.35;;;;;;;;;;4971991;28;20081;-63
2022/05/09 06:07:55;;;;;;;8.32;3.22;;;;;;;;;;4956656;28;20086;-64
2022/05/09 06:10:26;;;;;;;7.88;3.47;;;;;;;;;;4971032;28;20054;-63
2022/05/09 06:12:57;;;;;;;6.63;2.70;;;;;;;;;;4952722;29;20522;-64
2022/05/09 06:15:34;;;;;;;8.23;3.40;;;;;;;;;;4952748;29;20511;-64
2022/05/09 06:18:12;;;;;;;6.70;3.63;;;;;;;;;;4997222;28;20058;-63
2022/05/09 06:20:44;;;;;;;7.15;3.40;;;;;;;;;;4978869;28;20046;-63
2022/05/09 06:23:19;;;;;;;7.03;3.92;;;;;;;;;;5010878;28;20061;-64
2022/05/09 06:25:50;;;;;;;10.38;3.97;;;;;;;;;;5010892;28;20518;-64
2022/05/09 06:28:22;;;;;;;8.57;3.30;;;;;;;;;;4995276;28;20042;-64
2022/05/09 06:30:53;;;;;;;6.72;3.13;;;;;;;;;;4971332;28;20066;-64
2022/05/09 06:33:25;;;;;;;8.45;3.33;;;;;;;;;;4971757;28;20059;-64
2022/05/09 06:35:56;;;;;;;6.97;3.30;;;;;;;;;;4951872;29;20058;-64
2022/05/09 06:38:27;;;;;;;11.18;3.70;;;;;;;;;;4910127;29;20056;-64
2022/05/09 06:41:00;;;;;;;8.15;3.70;;;;;;;;;;4910295;29;20056;-64
2022/05/09 06:43:32;;;;;;;8.60;3.20;;;;;;;;;;4924044;29;20051;-64
2022/05/09 06:46:03;;;;;;;7.55;4.47;;;;;;;;;;4932810;29;20055;-64
2022/05/09 06:48:34;;;;;;;8.07;3.45;;;;;;;;;;4917581;29;20059;-63
2022/05/09 06:51:05;;;;;;;6.45;3.20;;;;;;;;;;4917522;29;20059;-64
2022/05/09 06:53:35;;;;;;;7.57;3.05;;;;;;;;;;4916708;29;20075;-64
2022/05/09 06:56:06;;;;;;;7.00;3.88;;;;;;;;;;4894581;29;20056;-64
2022/05/09 06:58:38;;;;;;;7.40;3.38;;;;;;;;;;4894815;29;20060;-63
2022/05/09 07:01:14;;;;;;;9.02;3.40;;;;;;;;;;4879219;29;20064;-63
2022/05/09 07:03:46;;;;;;;7.18;3.65;;;;;;;;;;4863548;29;20052;-64
2022/05/09 07:06:17;;;;;;;5.85;2.88;;;;;;;;;;4894731;29;20052;-63
2022/05/09 07:08:48;;;;;;;7.55;2.88;;;;;;;;;;4885755;29;20405;-64
2022/05/09 07:11:18;;;;;;;6.43;3.38;;;;;;;;;;4878791;29;20080;-64
2022/05/09 07:13:52;;;;;;;7.18;2.80;;;;;;;;;;4905875;29;20067;-64
2022/05/09 07:16:23;;;;;;;7.25;3.20;;;;;;;;;;4901156;29;20053;-63
2022/05/09 07:18:59;;;;;;;7.20;2.50;;;;;;;;;;4913375;29;20441;-64
2022/05/09 07:21:30;;;;;;;5.97;3.05;;;;;;;;;;4922606;29;20158;-64
2022/05/09 07:24:01;;;;;;;7.18;3.08;;;;;;;;;;4935785;29;20408;-64
2022/05/09 07:26:32;;;;;;;6.38;3.00;;;;;;;;;;4935687;29;20059;-63
2022/05/09 07:29:09;;;;;;;7.50;3.15;;;;;;;;;;4951376;29;20050;-64
2022/05/09 07:31:39;;;;;;;6.50;2.90;;;;;;;;;;4948049;28;20050;-64
2022/05/09 07:34:10;;;;;;;6.18;4.43;;;;;;;;;;5016878;28;20058;-64
2022/05/09 07:36:41;;;;;;;6.07;3.10;;;;;;;;;;4996084;28;20049;-64
2022/05/09 07:39:15;;;;;;;8.80;3.72;;;;;;;;;;5029094;28;20148;-64
2022/05/09 07:41:46;;;;;;;8.45;3.70;;;;;;;;;;5029284;28;20050;-63
2022/05/09 07:44:16;;;;;;;8.73;2.90;;;;;;;;;;4996079;28;20413;-64
2022/05/09 07:46:48;;;;;;;6.93;2.80;;;;;;;;;;5042020;28;20507;-64
2022/05/09 07:49:18;;;;;;;8.35;3.35;;;;;;;;;;5015777;28;20057;-64
2022/05/09 07:51:49;;;;;;;7.85;3.50;;;;;;;;;;5048883;28;20087;-64
2022/05/09 07:54:19;;;;;;;7.25;3.70;;;;;;;;;;5032665;28;20053;-64
2022/05/09 07:56:50;;;;;;;5.72;2.90;;;;;;;;;;5035846;28;20054;-64
2022/05/09 07:59:21;;;;;;;7.90;3.50;;;;;;;;;;5029185;28;20080;-64
2022/05/09 08:01:52;;;;;;;9.05;3.40;;;;;;;;;;5028284;28;20493;-64
2022/05/09 08:04:24;;;;;;;6.30;2.58;;;;;;;;;;5008919;28;20399;-64
2022/05/09 08:06:55;;;;;;;8.50;2.80;;;;;;;;;;4976356;28;20075;-64
2022/05/09 08:09:25;;;;;;;8.68;3.33;;;;;;;;;;4993058;28;20513;-63
2022/05/09 08:11:58;;;;;;;6.93;3.47;;;;;;;;;;5020228;28;20497;-64
2022/05/09 08:14:28;;;;;;;7.88;2.90;;;;;;;;;;4996038;28;20053;-64
2022/05/09 08:17:00;;;;;;;8.40;3.05;;;;;;;;;;5028583;28;20171;-63
2022/05/09 08:19:32;;;;;;;8.05;3.80;;;;;;;;;;5028972;28;20060;-64
2022/05/09 08:22:03;;;;;;;9.63;3.70;;;;;;;;;;5028957;28;20058;-63
2022/05/09 08:24:35;;;;;;;9.48;3.60;;;;;;;;;;5028835;28;20058;-64
2022/05/09 08:27:06;;;;;;;8.07;4.10;;;;;;;;;;5031678;28;20056;-64
2022/05/09 08:29:37;;;;;;;10.25;4.30;;;;;;;;;;4993125;28;20050;-64
2022/05/09 08:32:08;;;;;;;8.05;3.63;;;;;;;;;;4993246;28;20430;-64
2022/05/09 08:34:41;;;;;;;10.55;4.15;;;;;;;;;;4993328;28;20050;-64
2022/05/09 08:37:14;;;;;;;8.02;3.63;;;;;;;;;;4989468;28;20050;-64
2022/05/09 08:39:46;;;;;;;10.38;4.47;;;;;;;;;;4930259;29;20059;-64
2022/05/09 08:42:41;;;;;;;11.75;4.78;;;;;;;;;;4918546;28;20062;-63
2022/05/09 08:45:32;;;;;;;8.93;3.90;;;;;;;;;;4918889;29;20066;-63
2022/05/09 08:48:15;;;;;;;6.20;2.95;;;;;;;;;;4915705;29;20063;-63
2022/05/09 08:50:53;;;;;;;6.35;4.18;;;;;;;;;;4915736;29;20060;-63
2022/05/09 08:53:26;;;;;;;10.20;4.53;;;;;;;;;;4916058;29;20063;-63
2022/05/09 08:55:59;;;;;;;;;;;;;;;;;;4916417;29;20060;-63
2022/05/09 08:58:51;;;;;;;8.00;3.92;;;;;;;;;;4915750;29;19923;-63
2022/05/09 09:01:45;;;;;;;11.57;3.28;;;;;;;;;;4881427;29;20429;-63
2022/05/09 09:04:29;;;;;;;7.55;3.80;;;;;;;;;;4915454;29;20044;-63
2022/05/09 09:07:35;;;;;;;7.68;3.80;;;;;;;;;;4922404;29;20059;-63
2022/05/09 09:10:15;;;;;;;6.57;2.85;;;;;;;;;;4934263;29;20443;-63
2022/05/09 09:13:09;;;;;;;7.80;4.00;;;;;;;;;;4934483;29;20051;-63
2022/05/09 09:16:03;;;;;;;7.85;4.25;;;;;;;;;;4949558;28;20051;-63
2022/05/09 09:18:56;;;;;;;9.48;4.03;;;;;;;;;;4973095;28;20415;-63
2022/05/09 09:21:44;;;;;;;11.80;4.13;;;;;;;;;;4942794;28;20050;-63
2022/05/09 09:24:22;;;;;;;9.50;3.95;;;;;;;;;;5004979;28;20046;-63
2022/05/09 09:27:27;;;;;;;12.32;5.22;;;;;;;;;;4991545;28;20054;-63
2022/05/09 09:30:00;;;;;;;9.70;4.28;;;;;;;;;;4992435;28;20205;-63
2022/05/09 09:32:31;;;;;;;7.10;4.05;;;;;;;;;;4991964;28;20058;-63
2022/05/09 09:35:31;;;;;;;9.30;3.75;;;;;;;;;;4992157;28;20053;-64
2022/05/09 09:38:32;;;;;;;8.60;4.35;;;;;;;;;;4952643;28;20070;-64
2022/05/09 09:41:41;;;;;;;9.50;3.80;;;;;;;;;;4933863;29;20063;-63
2022/05/09 09:44:17;;;;;;;10.48;4.55;;;;;;;;;;4886742;29;20559;-64
2022/05/09 09:47:09;;;;;;;8.45;4.43;;;;;;;;;;4916899;29;20063;-64
2022/05/09 09:50:12;;;;;;;8.45;3.60;;;;;;;;;;4934156;29;20067;-64
2022/05/09 09:52:49;;;;;;;10.02;3.97;;;;;;;;;;4933924;29;20063;-64
2022/05/09 09:55:34;;;;;;;9.50;3.97;;;;;;;;;;4933906;29;20056;-63
2022/05/09 09:58:27;;;;;;;8.68;4.47;;;;;;;;;;4933664;29;20063;-64
2022/05/09 10:01:30;;;;;;;14.20;5.25;;;;;;;;;;4944718;29;20062;-65
2022/05/09 10:04:09;;;;;;;9.10;5.00;;;;;;;;;;4895559;29;20052;-64
2022/05/09 10:07:06;;;;;;;11.25;5.20;;;;;;;;;;4880029;29;20052;-64
2022/05/09 10:09:44;;;;;;;14.45;5.40;;;;;;;;;;4849161;29;20055;-64
2022/05/09 10:12:16;;;;;;;9.70;5.22;;;;;;;;;;4879546;29;20048;-64
2022/05/09 10:14:48;;;;;;;11.82;5.88;;;;;;;;;;4883669;29;20052;-63
2022/05/09 10:17:28;;;;;;;9.25;4.95;;;;;;;;;;4914141;29;20089;-64
2022/05/09 10:20:29;;;;;;;9.02;4.53;;;;;;;;;;4886004;29;20062;-64
2022/05/09 10:26:18;;;;;;;10.90;5.22;;;;;;;;;;4929401;29;20200;-64
2022/05/09 10:28:59;;;;;;;10.23;4.63;;;;;;;;;;4914261;29;20048;-63
2022/05/09 10:31:40;;;;;;;8.82;4.90;;;;;;;;;;4867752;29;20500;-63
2022/05/09 10:34:20;;;;;;;8.85;4.60;;;;;;;;;;4894960;29;20512;-63
2022/05/09 10:37:23;;;;;;;9.02;4.78;;;;;;;;;;4895136;29;20061;-63
2022/05/09 10:40:02;;;;;;;14.93;4.88;;;;;;;;;;4876159;29;20060;-63
2022/05/09 10:42:46;;;;;;;;;;;;;;;;;;4876848;29;20061;-63
2022/05/09 10:45:27;;;;;;;10.98;4.32;;;;;;;;;;4876409;29;20301;-66
2022/05/09 10:48:07;;;;;;;12.57;4.82;;;;;;;;;;4876235;29;20410;-63
2022/05/09 10:50:53;;;;;;;13.13;6.43;;;;;;;;;;4886185;29;20765;-63
2022/05/09 10:53:44;;;;;;;11.35;5.45;;;;;;;;;;4878022;29;20061;-63
2022/05/09 10:56:27;;;;;;;12.70;5.85;;;;;;;;;;4894747;29;20061;-63
2022/05/09 10:59:08;;;;;;;15.00;6.18;;;;;;;;;;4878978;29;20064;-63
2022/05/09 11:02:02;;;;;;;15.98;6.38;;;;;;;;;;4926436;29;20067;-63
2022/05/09 11:04:35;;;;;;;11.18;5.20;;;;;;;;;;4944138;29;20066;-63
2022/05/09 11:07:24;;;;;;;14.98;5.97;;;;;;;;;;4919786;29;20078;-63
2022/05/09 11:10:23;;;;;;;15.15;7.10;;;;;;;;;;4951658;29;20063;-63
2022/05/09 11:13:06;;;;;;;15.65;7.43;;;;;;;;;;4906366;28;20069;-64
2022/05/09 11:16:15;;;;;;;22.77;8.23;;;;;;;;;;4970548;28;20058;-63
2022/05/09 11:18:59;;;;;;;13.43;6.97;;;;;;;;;;4970668;28;20054;-63
2022/05/09 11:21:38;;;;;;;13.55;6.85;;;;;;;;;;4954444;28;20058;-63
2022/05/09 11:24:40;;;;;;;17.23;7.07;;;;;;;;;;4970482;28;20065;-63
2022/05/09 11:27:27;;;;;;;13.88;6.70;;;;;;;;;;4987616;28;20568;-64
2022/05/09 11:30:27;;;;;;;12.18;6.65;;;;;;;;;;4977128;28;20481;-63
2022/05/09 11:33:19;;;;;;;16.58;6.78;;;;;;;;;;5009469;28;20058;-63
2022/05/09 11:35:58;;;;;;;11.82;6.70;;;;;;;;;;4970140;28;20039;-63
2022/05/09 11:38:59;;;;;;;15.52;7.72;;;;;;;;;;4954627;28;20066;-64
2022/05/09 11:41:37;;;;;;;18.60;8.95;;;;;;;;;;4938428;28;20051;-64
2022/05/09 11:44:15;;;;;;;16.27;7.60;;;;;;;;;;4884817;29;20059;-64
2022/05/09 11:47:01;;;;;;;27.98;10.88;;;;;;;;;;4935103;29;20047;-64
2022/05/09 11:49:57;;;;;;;30.23;10.82;;;;;;;;;;4950968;29;20160;-64
2022/05/09 11:52:30;;;;;;;19.10;8.07;;;;;;;;;;4912645;29;20049;-64
2022/05/09 11:55:07;;;;;;;;;;;;;;;;;;4889870;29;20062;-64
2022/05/09 11:57:40;;;;;;;10.18;6.20;;;;;;;;;;4950758;29;19923;-65
2022/05/09 12:00:33;;;;;;;15.05;6.47;;;;;;;;;;4925129;28;20046;-65
2022/05/09 12:03:11;;;;;;;19.27;10.65;;;;;;;;;;4893845;29;20061;-65
2022/05/09 12:05:54;;;;;;;23.52;12.93;;;;;;;;;;4864362;29;20088;-65
2022/05/09 12:08:53;;;;;;;21.92;10.85;;;;;;;;;;4875111;29;20537;-64
2022/05/09 12:11:24;;;;;;;19.42;10.10;;;;;;;;;;4856885;29;20061;-64
2022/05/09 12:13:57;;;;;;;18.38;9.45;;;;;;;;;;4826260;29;20057;-65
2022/05/09 12:16:36;;;;;;;19.00;8.93;;;;;;;;;;4856540;29;20069;-64
2022/05/09 12:19:36;;;;;;;16.85;8.77;;;;;;;;;;4841094;29;20560;-65
2022/05/09 12:22:40;;;;;;;15.48;8.38;;;;;;;;;;4873448;29;20065;-65
2022/05/09 12:28:18;;;;;;;19.27;8.38;;;;;;;;;;4859003;29;20058;-65
2022/05/09 12:30:56;;;;;;;17.25;7.95;;;;;;;;;;4844715;29;20097;-65
2022/05/09 12:33:35;;;;;;;22.83;7.70;;;;;;;;;;4857009;29;20057;-65
2022/05/09 12:36:28;;;;;;;17.75;8.00;;;;;;;;;;4837256;29;20050;-65
2022/05/09 12:39:02;;;;;;;22.35;9.63;;;;;;;;;;4822578;29;20065;-65
2022/05/09 12:41:52;;;;;;;19.67;8.10;;;;;;;;;;4813349;29;20473;-64
2022/05/09 12:44:34;;;;;;;18.00;7.18;;;;;;;;;;4863056;29;20053;-64
2022/05/09 12:47:26;;;;;;;9.98;6.63;;;;;;;;;;4872586;29;20710;-65
2022/05/09 12:50:34;;;;;;;13.27;5.90;;;;;;;;;;4856374;29;20062;-65
2022/05/09 12:53:18;;;;;;;14.25;6.43;;;;;;;;;;4855586;29;20498;-65
2022/05/09 12:56:18;;;;;;;10.90;6.15;;;;;;;;;;4855472;29;20072;-65
2022/05/09 12:59:05;;;;;;;13.75;6.03;;;;;;;;;;4881856;29;20061;-65
2022/05/09 13:01:42;;;;;;;9.07;4.78;;;;;;;;;;4903802;29;20071;-65
2022/05/09 13:04:36;;;;;;;14.52;6.32;;;;;;;;;;4950212;28;20494;-65
2022/05/09 13:07:08;;;;;;;9.35;4.97;;;;;;;;;;5008358;28;20406;-65
2022/05/09 13:09:51;;;;;;;68.53;34.35;;;;;;;;;;4975620;28;20076;-64
2022/05/09 13:12:33;;;;;;;16.45;10.07;;;;;;;;;;5008284;28;20054;-62
2022/05/09 13:15:18;;;;;;;7.25;4.13;;;;;;;;;;4986294;28;20050;-62
2022/05/09 13:17:56;;;;;;;8.93;4.35;;;;;;;;;;5039032;28;20557;-62
2022/05/09 13:20:30;;;;;;;11.20;7.18;;;;;;;;;;5055516;28;20052;-63
2022/05/09 13:23:08;;;;;;;7.15;4.43;;;;;;;;;;5038692;28;20487;-64
2022/05/09 13:25:42;;;;;;;8.15;4.05;;;;;;;;;;5021708;28;20060;-63
2022/05/09 13:28:17;;;;;;;9.82;5.15;;;;;;;;;;5059911;28;20053;-62
2022/05/09 13:30:51;;;;;;;7.93;3.92;;;;;;;;;;5035385;28;20065;-63
2022/05/09 13:33:30;;;;;;;7.07;3.63;;;;;;;;;;5051128;28;20052;-62
2022/05/09 13:36:04;;;;;;;8.75;3.17;;;;;;;;;;5050876;28;20044;-65
2022/05/09 13:38:39;;;;;;;7.25;4.10;;;;;;;;;;5050897;28;20052;-64
2022/05/09 13:41:14;;;;;;;7.85;3.85;;;;;;;;;;5050898;28;20524;-64
2022/05/09 13:43:50;;;;;;;7.00;3.40;;;;;;;;;;5050561;28;20088;-62
2022/05/09 13:46:27;;;;;;;7.20;3.40;;;;;;;;;;5001358;28;20041;-65
2022/05/09 13:49:02;;;;;;;5.38;3.22;;;;;;;;;;4987115;28;20053;-64
2022/05/09 13:51:41;;;;;;;5.82;3.20;;;;;;;;;;4974736;28;20058;-63
2022/05/09 13:54:27;;;;;;;5.18;3.05;;;;;;;;;;4991488;28;20054;-64
2022/05/09 13:57:18;;;;;;;5.53;3.17;;;;;;;;;;5006568;28;20042;-63
2022/05/09 13:59:55;;;;;;;4.85;2.65;;;;;;;;;;4972149;28;20070;-63
2022/05/09 14:02:30;;;;;;;12.20;3.72;;;;;;;;;;4924260;28;20059;-63
2022/05/09 14:05:07;;;;;;;8.32;3.65;;;;;;;;;;4971897;28;20054;-63
2022/05/09 14:07:42;;;;;;;5.63;2.90;;;;;;;;;;4956111;28;20439;-63
2022/05/09 14:10:12;;;;;;;9.38;3.75;;;;;;;;;;4955747;28;20050;-62
2022/05/09 14:12:42;;;;;;;7.90;3.83;;;;;;;;;;4972061;28;20074;-63
2022/05/09 14:15:18;;;;;;;9.25;4.50;;;;;;;;;;4971472;28;20062;-63
2022/05/09 14:17:58;;;;;;;6.85;3.55;;;;;;;;;;4971875;28;20062;-63
2022/05/09 14:20:38;;;;;;;6.50;3.45;;;;;;;;;;4952102;28;20047;-64
2022/05/09 14:23:17;;;;;;;7.35;3.92;;;;;;;;;;4952358;28;20136;-63
2022/05/09 14:31:54;;;;;;;31.15;16.63;;;;;;;;;;4990866;28;20073;-63
2022/05/09 14:34:28;;;;;;;8.55;4.13;;;;;;;;;;5010158;28;20057;-63
2022/05/09 14:37:28;;;;;;;8.30;3.70;;;;;;;;;;5016850;28;20069;-63
2022/05/09 14:40:16;;;;;;;6.57;3.95;;;;;;;;;;4990330;28;20521;-63
2022/05/09 14:42:56;;;;;;;10.90;4.68;;;;;;;;;;4974527;28;20054;-64
2022/05/09 14:45:34;;;;;;;6.85;3.83;;;;;;;;;;5026330;28;20505;-63
2022/05/09 14:48:42;;;;;;;8.25;4.63;;;;;;;;;;5010281;28;20547;-62
2022/05/09 14:51:18;;;;;;;7.50;4.68;;;;;;;;;;4974471;28;20063;-63
2022/05/09 14:53:52;;;;;;;10.00;3.67;;;;;;;;;;4990865;28;20446;-62
2022/05/09 14:59:20;;;;;;;10.02;2.80;;;;;;;;;;5008728;28;20406;-62
2022/05/09 15:02:10;;;;;;;8.35;4.25;;;;;;;;;;4977227;28;20054;-62
2022/05/09 15:04:41;;;;;;;5.22;2.97;;;;;;;;;;5009837;28;20058;-62
2022/05/09 15:07:11;;;;;;;6.60;3.28;;;;;;;;;;4960964;28;20064;-62
2022/05/09 15:09:42;;;;;;;6.32;4.18;;;;;;;;;;5009760;28;20062;-62
2022/05/09 15:12:23;;;;;;;5.63;3.47;;;;;;;;;;4982990;28;20054;-62
2022/05/09 15:14:55;;;;;;;6.18;3.17;;;;;;;;;;4989948;28;20453;-62
2022/05/09 15:17:25;;;;;;;6.40;3.50;;;;;;;;;;5001051;28;20057;-62
2022/05/09 15:19:57;;;;;;;5.97;3.42;;;;;;;;;;4996393;28;20050;-62
2022/05/09 15:22:28;;;;;;;6.35;2.88;;;;;;;;;;4980695;28;20406;-62
2022/05/09 15:24:59;;;;;;;5.32;2.53;;;;;;;;;;5009191;28;20421;-63
2022/05/09 15:27:31;;;;;;;5.38;3.45;;;;;;;;;;4980353;28;20046;-64
2022/05/09 15:30:02;;;;;;;5.88;3.58;;;;;;;;;;4992948;28;20054;-62
2022/05/09 15:32:35;;;;;;;6.90;2.78;;;;;;;;;;5009477;28;20441;-62
2022/05/09 15:35:06;;;;;;;8.93;3.45;;;;;;;;;;5008958;28;20045;-62
2022/05/09 15:37:37;;;;;;;5.88;3.10;;;;;;;;;;5009201;28;20069;-62
2022/05/09 15:40:08;;;;;;;7.75;3.67;;;;;;;;;;5009338;28;20077;-62
2022/05/09 15:42:39;;;;;;;5.07;2.70;;;;;;;;;;5009026;28;20054;-63
2022/05/09 15:45:17;;;;;;;4.30;2.53;;;;;;;;;;5009250;28;20086;-62
2022/05/09 15:47:51;;;;;;;5.20;3.00;;;;;;;;;;5009202;28;20038;-62
2022/05/09 15:50:21;;;;;;;6.57;2.90;;;;;;;;;;5009452;28;20058;-62
2022/05/09 15:52:52;;;;;;;5.70;3.13;;;;;;;;;;4960535;28;20591;-62
2022/05/09 15:55:28;;;;;;;7.47;2.90;;;;;;;;;;5009270;28;20061;-62
2022/05/09 15:57:59;;;;;;;4.68;3.00;;;;;;;;;;5009123;28;20058;-62
2022/05/09 16:00:33;;;;;;;4.70;2.33;;;;;;;;;;5008865;28;20168;-62
2022/05/09 16:03:06;;;;;;;4.05;2.63;;;;;;;;;;5007062;28;20053;-62